Time;durP1;ratioP1;P1;durP2;ratioP2;P2;SDS_P1;SDS_P2;PMS_P1;PMS_P2;Temp;Humidity;BMP_temperature;BMP_pressure;BME280_temperature;BME280_humidity;BME280_pressure;Samples;Min_cycle;Max_cycle;Signal;HPM_P1;HPM_P2
2024/01/03 00:00:08;;;;;;;19.17;2.10;;;;;;;9.92;92.46;98551.41;5061264;28;20042;-74
2024/01/03 00:02:34;;;;;;;13.93;1.65;;;;;;;9.91;93.03;98550.59;5044058;28;20027;-73
2024/01/03 00:04:59;;;;;;;13.68;1.50;;;;;;;9.94;93.28;98570.09;5072893;28;20102;-74
2024/01/03 00:07:25;;;;;;;16.65;1.90;;;;;;;9.96;93.43;98556.97;5046667;28;20053;-74
2024/01/03 00:09:55;;;;;;;14.95;1.42;;;;;;;9.92;93.35;98557.34;5063071;28;20032;-74
2024/01/03 00:12:24;;;;;;;17.38;1.85;;;;;;;9.85;94.33;98564.38;5078045;28;20547;-74
2024/01/03 00:14:51;;;;;;;13.02;2.00;;;;;;;9.86;93.87;98573.72;5075282;28;20028;-72
2024/01/03 00:17:17;;;;;;;22.58;2.33;;;;;;;9.99;92.20;98574.69;5080636;28;20032;-74
2024/01/03 00:19:44;;;;;;;16.73;2.42;;;;;;;9.99;92.34;98572.09;5057051;28;20048;-74
2024/01/03 00:22:12;;;;;;;18.88;2.30;;;;;;;10.06;93.10;98575.44;5044441;28;20034;-74
2024/01/03 00:24:48;;;;;;;15.23;1.67;;;;;;;9.98;95.11;98583.44;5056888;28;20040;-73
2024/01/03 00:27:17;;;;;;;23.50;2.97;;;;;;;9.85;96.84;98579.91;5053959;28;20113;-74
2024/01/03 00:30:04;;;;;;;13.75;2.00;;;;;;;9.84;98.72;98588.66;5060160;28;20878;-74
2024/01/03 00:32:30;;;;;;;21.10;2.80;;;;;;;9.69;100.00;98603.66;5075414;28;20047;-74
2024/01/03 00:34:57;;;;;;;17.10;1.92;;;;;;;9.59;100.00;98616.19;5065663;28;20399;-74
2024/01/03 00:37:25;;;;;;;17.50;2.13;;;;;;;9.53;100.00;98612.63;5076675;28;20040;-74
2024/01/03 00:39:53;;;;;;;16.65;2.53;;;;;;;9.44;100.00;98637.94;5062521;28;20039;-74
2024/01/03 00:42:19;;;;;;;18.48;1.60;;;;;;;9.43;100.00;98632.94;5063928;28;20386;-74
2024/01/03 00:44:44;;;;;;;23.70;2.70;;;;;;;9.33;100.00;98623.03;5084167;28;20035;-75
2024/01/03 00:47:11;;;;;;;18.02;2.42;;;;;;;9.22;100.00;98645.09;5048251;28;20106;-75
2024/01/03 00:49:37;;;;;;;17.40;2.17;;;;;;;9.09;100.00;98627.00;5058884;28;20040;-75
2024/01/03 00:52:03;;;;;;;15.35;2.25;;;;;;;9.09;100.00;98642.50;5057734;28;20119;-75
2024/01/03 00:54:30;;;;;;;14.55;2.90;;;;;;;9.07;100.00;98641.91;5047641;28;20410;-75
2024/01/03 00:56:58;;;;;;;16.30;2.63;;;;;;;9.04;100.00;98647.47;5052011;28;20028;-75
2024/01/03 00:59:23;;;;;;;13.13;1.73;;;;;;;8.90;100.00;98631.97;5051088;28;20036;-74
2024/01/03 01:01:50;;;;;;;25.75;2.75;;;;;;;8.92;100.00;98650.66;5070318;28;21795;-73
2024/01/03 01:04:15;;;;;;;16.65;2.03;;;;;;;8.87;100.00;98645.28;5068357;28;20036;-75
2024/01/03 01:06:42;;;;;;;15.77;2.40;;;;;;;8.79;100.00;98650.63;5062351;28;20679;-75
2024/01/03 01:09:08;;;;;;;16.83;2.35;;;;;;;8.75;100.00;98646.84;5062369;28;20044;-74
2024/01/03 01:11:34;;;;;;;18.42;3.15;;;;;;;8.89;100.00;98632.16;5068991;28;20036;-73
2024/01/03 01:14:00;;;;;;;20.48;1.98;;;;;;;8.90;100.00;98649.25;5067435;28;20082;-74
2024/01/03 01:16:26;;;;;;;18.40;2.00;;;;;;;8.92;100.00;98639.53;5066724;28;20028;-74
2024/01/03 01:18:52;;;;;;;19.33;1.73;;;;;;;8.85;100.00;98638.72;5047319;28;20044;-73
2024/01/03 01:21:18;;;;;;;16.50;2.10;;;;;;;8.81;100.00;98653.81;5062012;28;20086;-74
2024/01/03 01:23:43;;;;;;;20.98;2.78;;;;;;;8.83;100.00;98645.88;5068957;28;20121;-74
2024/01/03 01:26:09;;;;;;;13.68;1.52;;;;;;;8.95;100.00;98649.47;5068108;28;20027;-75
2024/01/03 01:28:35;;;;;;;21.95;1.95;;;;;;;9.04;100.00;98657.81;5048540;28;20054;-73
2024/01/03 01:31:00;;;;;;;15.00;1.67;;;;;;;8.96;100.00;98651.06;5057003;28;20032;-74
2024/01/03 01:33:26;;;;;;;12.88;2.00;;;;;;;8.95;100.00;98646.88;5070739;28;20081;-74
2024/01/03 01:35:51;;;;;;;12.48;1.50;;;;;;;9.04;100.00;98656.06;5081171;28;20032;-74
2024/01/03 01:38:17;;;;;;;17.17;1.77;;;;;;;9.11;100.00;98662.00;5052410;28;20051;-74
2024/01/03 01:40:42;;;;;;;22.80;1.88;;;;;;;9.11;100.00;98666.38;5052413;28;20036;-74
2024/01/03 01:43:08;;;;;;;8.65;1.08;;;;;;;9.07;100.00;98665.19;5068786;28;20028;-74
2024/01/03 01:45:33;;;;;;;14.15;1.88;;;;;;;9.03;100.00;98654.44;5083666;28;20028;-74
2024/01/03 01:48:00;;;;;;;19.02;1.42;;;;;;;9.06;100.00;98666.97;5056643;28;21950;-74
2024/01/03 01:50:27;;;;;;;13.45;1.50;;;;;;;9.06;100.00;98671.34;5065825;28;20024;-74
2024/01/03 01:52:53;;;;;;;21.90;2.05;;;;;;;9.05;100.00;98673.13;5054709;28;20028;-74
2024/01/03 01:55:20;;;;;;;19.58;1.90;;;;;;;9.11;100.00;98659.41;5063164;28;20166;-73
2024/01/03 01:57:46;;;;;;;16.05;2.20;;;;;;;9.12;100.00;98684.28;5055166;28;20028;-75
2024/01/03 02:00:13;;;;;;;8.55;1.60;;;;;;;9.11;100.00;98692.22;5064438;28;20097;-75
2024/01/03 02:02:42;;;;;;;10.23;1.25;;;;;;;9.07;100.00;98684.06;5079817;28;20043;-74
2024/01/03 02:05:09;;;;;;;13.20;2.08;;;;;;;9.07;100.00;98683.28;5082981;28;20044;-75
2024/01/03 02:07:35;;;;;;;20.08;2.30;;;;;;;9.06;100.00;98689.44;5079978;28;20024;-74
2024/01/03 02:10:01;;;;;;;11.43;1.70;;;;;;;9.10;100.00;98696.63;5077790;28;20033;-74
2024/01/03 02:12:30;;;;;;;12.18;1.70;;;;;;;9.05;100.00;98695.63;5049226;28;20058;-74
2024/01/03 02:14:55;;;;;;;14.75;1.67;;;;;;;8.94;100.00;98686.63;5064929;28;20521;-73
2024/01/03 02:17:21;;;;;;;10.25;1.67;;;;;;;8.96;100.00;98687.25;5065216;28;20028;-75
2024/01/03 02:19:47;;;;;;;9.98;1.20;;;;;;;8.90;100.00;98685.44;5065135;28;20040;-74
2024/01/03 02:22:15;;;;;;;9.82;1.33;;;;;;;8.89;100.00;98687.25;5067481;28;20035;-74
2024/01/03 02:24:42;;;;;;;13.18;1.30;;;;;;;9.01;100.00;98694.41;5065901;28;20509;-74
2024/01/03 02:27:08;;;;;;;14.52;1.33;;;;;;;9.10;100.00;98696.63;5067499;28;20028;-74
2024/01/03 02:29:33;;;;;;;11.05;1.55;;;;;;;9.09;100.00;98692.44;5049749;28;20404;-74
2024/01/03 02:31:59;;;;;;;16.20;2.05;;;;;;;9.15;100.00;98689.06;5076588;28;20036;-74
2024/01/03 02:34:26;;;;;;;14.75;1.25;;;;;;;9.01;100.00;98692.63;5083129;28;20052;-73
2024/01/03 02:36:53;;;;;;;7.88;1.00;;;;;;;9.11;100.00;98697.41;5067311;28;20392;-74
2024/01/03 02:39:19;;;;;;;4.75;0.70;;;;;;;9.11;100.00;98694.81;5075219;28;20032;-74
2024/01/03 02:41:44;;;;;;;9.10;1.38;;;;;;;9.09;100.00;98707.16;5065365;28;20553;-73
2024/01/03 02:44:10;;;;;;;5.82;1.10;;;;;;;9.11;100.00;98705.94;5064212;28;20043;-74
2024/01/03 02:46:36;;;;;;;7.43;1.00;;;;;;;9.04;100.00;98709.53;5059120;28;20538;-74
2024/01/03 02:49:02;;;;;;;11.60;1.50;;;;;;;9.13;100.00;98701.38;5064954;28;20228;-74
2024/01/03 02:51:27;;;;;;;6.70;1.20;;;;;;;9.10;100.00;98716.50;5065922;28;20033;-73
2024/01/03 02:53:53;;;;;;;9.75;1.50;;;;;;;9.11;100.00;98720.66;5043269;28;20035;-73
2024/01/03 02:56:18;;;;;;;11.88;1.10;;;;;;;9.17;100.00;98717.28;5069729;28;20036;-74
2024/01/03 02:58:44;;;;;;;14.95;1.50;;;;;;;9.21;100.00;98728.03;5051537;28;21678;-74
2024/01/03 03:01:09;;;;;;;13.43;1.23;;;;;;;9.18;100.00;98737.00;5067273;28;20024;-73
2024/01/03 03:03:35;;;;;;;14.10;2.03;;;;;;;9.18;100.00;98734.41;5050820;28;20496;-73
2024/01/03 03:06:02;;;;;;;10.35;1.30;;;;;;;9.14;100.00;98730.63;5052448;28;20028;-73
2024/01/03 03:08:28;;;;;;;12.27;1.77;;;;;;;9.03;100.00;98733.78;5048651;28;20071;-74
2024/01/03 03:10:53;;;;;;;10.20;1.48;;;;;;;9.08;100.00;98734.81;5058877;28;20041;-74
2024/01/03 03:13:19;;;;;;;14.70;1.92;;;;;;;9.00;100.00;98732.38;5082173;28;20043;-74
2024/01/03 03:15:46;;;;;;;20.60;2.83;;;;;;;8.99;100.00;98746.31;5065791;28;20031;-74
2024/01/03 03:18:12;;;;;;;11.63;1.58;;;;;;;9.10;100.00;98742.38;5077558;28;20575;-73
2024/01/03 03:20:38;;;;;;;6.70;1.10;;;;;;;9.08;100.00;98742.56;5064473;28;20028;-74
2024/01/03 03:23:03;;;;;;;14.88;2.35;;;;;;;9.12;100.00;98761.06;5065095;28;20033;-72
2024/01/03 03:25:29;;;;;;;16.77;2.00;;;;;;;9.09;100.00;98751.88;5048498;28;20036;-74
2024/01/03 03:27:54;;;;;;;15.45;1.45;;;;;;;9.13;100.00;98754.88;5070019;28;20055;-73
2024/01/03 03:30:20;;;;;;;9.90;1.30;;;;;;;9.10;100.00;98748.31;5063480;28;20039;-74
2024/01/03 03:32:46;;;;;;;11.13;1.55;;;;;;;9.02;100.00;98761.41;5086829;28;20042;-74
2024/01/03 03:35:11;;;;;;;10.35;1.30;;;;;;;8.92;100.00;98751.44;5067461;28;20037;-73
2024/01/03 03:37:37;;;;;;;8.68;1.00;;;;;;;8.92;100.00;98768.75;5065674;28;20036;-74
2024/01/03 03:40:02;;;;;;;7.22;1.25;;;;;;;8.90;100.00;98776.69;5055522;28;20518;-74
2024/01/03 03:42:28;;;;;;;17.58;1.30;;;;;;;8.82;100.00;98766.53;5082468;28;20502;-75
2024/01/03 03:44:56;;;;;;;16.33;2.35;;;;;;;8.77;100.00;98759.34;5064062;28;20399;-75
2024/01/03 03:47:22;;;;;;;9.73;1.73;;;;;;;8.68;100.00;98773.47;5081629;28;20035;-74
2024/01/03 03:49:47;;;;;;;13.57;1.30;;;;;;;8.62;100.00;98761.28;5081733;28;20040;-75
2024/01/03 03:52:13;;;;;;;7.88;1.10;;;;;;;8.58;100.00;98762.66;5062513;28;20033;-75
2024/01/03 03:54:38;;;;;;;11.38;1.50;;;;;;;8.51;100.00;98756.66;5080203;28;20539;-75
2024/01/03 03:57:04;;;;;;;10.73;2.75;;;;;;;8.56;100.00;98751.72;5068521;28;20043;-74
2024/01/03 03:59:29;;;;;;;7.32;0.88;;;;;;;8.60;100.00;98763.28;5066008;28;20028;-72
2024/01/03 04:01:55;;;;;;;9.48;1.60;;;;;;;8.57;100.00;98764.47;5078062;28;20032;-75
2024/01/03 04:04:21;;;;;;;13.45;2.97;;;;;;;8.58;100.00;98754.91;5053926;28;20032;-74
2024/01/03 04:06:46;;;;;;;11.07;1.35;;;;;;;8.64;100.00;98758.53;5064783;28;20032;-74
2024/01/03 04:09:13;;;;;;;13.50;1.40;;;;;;;8.64;100.00;98768.84;5065484;28;20035;-73
2024/01/03 04:11:42;;;;;;;14.20;1.55;;;;;;;8.64;100.00;98761.88;5086537;28;20028;-74
2024/01/03 04:14:09;;;;;;;9.00;1.38;;;;;;;8.70;100.00;98765.50;5063790;28;20036;-73
2024/01/03 04:16:34;;;;;;;8.95;1.23;;;;;;;8.74;100.00;98764.94;5081407;28;20038;-74
2024/01/03 04:19:00;;;;;;;11.50;1.52;;;;;;;8.79;100.00;98768.72;5061921;28;20459;-74
2024/01/03 04:21:27;;;;;;;7.95;1.17;;;;;;;8.89;100.00;98771.72;5063246;28;20040;-74
2024/01/03 04:23:53;;;;;;;13.63;1.95;;;;;;;8.87;100.00;98768.53;5050745;28;20418;-74
2024/01/03 04:26:18;;;;;;;11.32;1.42;;;;;;;8.94;100.00;98764.97;5081735;28;20043;-73
2024/01/03 04:28:44;;;;;;;17.52;1.88;;;;;;;8.97;100.00;98758.63;5062450;28;20032;-74
2024/01/03 04:31:09;;;;;;;14.88;1.55;;;;;;;8.95;100.00;98763.22;5080881;28;20494;-74
2024/01/03 04:33:34;;;;;;;9.93;1.40;;;;;;;8.98;100.00;98767.19;5079687;28;20032;-72
2024/01/03 04:36:00;;;;;;;15.00;1.65;;;;;;;8.96;100.00;98765.56;5061981;28;20043;-73
2024/01/03 04:38:26;;;;;;;17.63;1.77;;;;;;;8.86;100.00;98760.00;5062639;28;20513;-74
2024/01/03 04:40:51;;;;;;;14.45;2.15;;;;;;;8.94;100.00;98774.53;5046839;28;20028;-73
2024/01/03 04:43:17;;;;;;;9.98;1.35;;;;;;;8.88;100.00;98793.41;5078115;28;20481;-73
2024/01/03 04:45:42;;;;;;;8.15;1.58;;;;;;;8.85;100.00;98779.06;5081897;28;20414;-74
2024/01/03 04:48:07;;;;;;;8.40;1.67;;;;;;;8.89;100.00;98774.31;5083397;28;20028;-74
2024/01/03 04:50:33;;;;;;;17.25;1.67;;;;;;;8.88;100.00;98783.84;5064993;28;20032;-73
2024/01/03 04:52:59;;;;;;;11.90;1.40;;;;;;;8.87;100.00;98787.44;5063387;28;20031;-75
2024/01/03 04:55:26;;;;;;;12.32;1.73;;;;;;;8.81;100.00;98785.63;5063849;28;20471;-74
2024/01/03 04:57:51;;;;;;;10.70;1.33;;;;;;;8.76;100.00;98786.22;5059440;28;21728;-74
2024/01/03 05:00:17;;;;;;;9.10;1.52;;;;;;;8.84;100.00;98785.25;5061068;28;20028;-73
2024/01/03 05:02:42;;;;;;;8.27;1.17;;;;;;;8.75;100.00;98782.00;5063807;28;20061;-72
2024/01/03 05:05:08;;;;;;;5.28;0.75;;;;;;;8.73;100.00;98765.91;5063942;28;20032;-74
2024/01/03 05:07:34;;;;;;;6.50;1.23;;;;;;;8.72;100.00;98781.59;5064601;28;20483;-73
2024/01/03 05:10:01;;;;;;;5.63;1.10;;;;;;;8.71;100.00;98785.97;5059095;28;20033;-72
2024/01/03 05:12:26;;;;;;;11.82;1.10;;;;;;;8.70;100.00;98783.59;5063452;28;20555;-74
2024/01/03 05:14:52;;;;;;;3.92;0.70;;;;;;;8.71;100.00;98790.34;5044694;28;20040;-72
2024/01/03 05:17:17;;;;;;;5.03;1.02;;;;;;;8.71;100.00;98778.22;5085180;28;20479;-74
2024/01/03 05:19:43;;;;;;;9.68;1.05;;;;;;;8.65;100.00;98778.22;5079879;28;20040;-74
2024/01/03 05:22:09;;;;;;;8.13;0.90;;;;;;;8.69;100.00;98779.41;5066095;28;20088;-74
2024/01/03 05:24:34;;;;;;;7.22;1.00;;;;;;;8.61;100.00;98795.06;5088624;28;20497;-73
2024/01/03 05:27:00;;;;;;;6.70;0.98;;;;;;;8.66;100.00;98788.34;5048431;28;20028;-73
2024/01/03 05:29:25;;;;;;;6.85;1.08;;;;;;;8.59;100.00;98790.13;5077980;28;20028;-74
2024/01/03 05:31:51;;;;;;;6.63;1.25;;;;;;;8.58;100.00;98801.41;5083921;28;20403;-73
2024/01/03 05:34:16;;;;;;;12.85;2.55;;;;;;;8.61;100.00;98801.06;5079191;28;20036;-73
2024/01/03 05:36:42;;;;;;;12.35;1.05;;;;;;;8.57;100.00;98794.69;5064834;28;20039;-73
2024/01/03 05:39:08;;;;;;;9.15;2.83;;;;;;;8.66;100.00;98801.25;5089791;28;20036;-73
2024/01/03 05:41:33;;;;;;;8.65;1.10;;;;;;;8.65;100.00;98793.72;5081555;28;20035;-73
2024/01/03 05:43:59;;;;;;;9.93;1.40;;;;;;;8.61;100.00;98789.91;5064421;28;20036;-73
2024/01/03 05:46:24;;;;;;;11.43;1.48;;;;;;;8.62;100.00;98794.88;5070001;28;20032;-73
2024/01/03 05:48:49;;;;;;;9.98;1.60;;;;;;;8.66;100.00;98787.53;5069044;28;20047;-74
2024/01/03 05:51:18;;;;;;;10.93;1.35;;;;;;;8.61;100.00;98795.88;5090882;28;20027;-73
2024/01/03 05:53:47;;;;;;;14.05;1.88;;;;;;;8.57;100.00;98805.00;5082176;28;20040;-74
2024/01/03 05:56:16;;;;;;;13.15;2.65;;;;;;;8.61;100.00;98798.47;5091048;28;20032;-74
2024/01/03 05:58:42;;;;;;;12.77;1.50;;;;;;;8.65;100.00;98799.66;5064746;28;20032;-75
2024/01/03 06:01:10;;;;;;;14.98;2.15;;;;;;;8.68;100.00;98799.31;5081039;28;20071;-74
2024/01/03 06:03:36;;;;;;;18.83;1.65;;;;;;;8.62;100.00;98799.25;5084272;28;20028;-74
2024/01/03 06:06:01;;;;;;;15.07;2.67;;;;;;;8.52;100.00;98802.97;5060419;28;20427;-74
2024/01/03 06:08:27;;;;;;;10.57;1.95;;;;;;;8.54;100.00;98805.38;5050419;28;20036;-74
2024/01/03 06:10:52;;;;;;;15.27;1.65;;;;;;;8.57;100.00;98802.44;5058857;28;20586;-75
2024/01/03 06:13:18;;;;;;;17.10;1.90;;;;;;;8.53;100.00;98812.34;5062186;28;20040;-75
2024/01/03 06:15:43;;;;;;;14.80;2.17;;;;;;;8.45;100.00;98798.78;5058639;28;20039;-74
2024/01/03 06:18:10;;;;;;;12.70;1.95;;;;;;;8.39;100.00;98795.94;5064275;28;20030;-75
2024/01/03 06:20:36;;;;;;;16.80;1.80;;;;;;;8.35;100.00;98799.88;5052155;28;20040;-75
2024/01/03 06:23:01;;;;;;;12.57;1.73;;;;;;;8.43;100.00;98785.25;5080526;28;20097;-75
2024/01/03 06:25:26;;;;;;;15.60;1.75;;;;;;;8.36;100.00;98783.41;5069128;28;20024;-75
2024/01/03 06:27:53;;;;;;;13.43;1.88;;;;;;;8.41;100.00;98779.44;5055489;28;20544;-73
2024/01/03 06:30:19;;;;;;;12.82;2.40;;;;;;;8.37;100.00;98784.19;5045986;28;20044;-75
2024/01/03 06:32:44;;;;;;;8.88;1.60;;;;;;;8.34;100.00;98782.81;5062947;28;20035;-75
2024/01/03 06:35:10;;;;;;;11.05;1.80;;;;;;;8.26;100.00;98771.81;5051264;28;20043;-75
2024/01/03 06:37:35;;;;;;;12.88;2.10;;;;;;;8.25;100.00;98773.63;5060719;28;20683;-73
2024/01/03 06:40:01;;;;;;;20.52;3.00;;;;;;;8.20;100.00;98763.03;5073345;28;20039;-75
2024/01/03 06:42:26;;;;;;;11.98;1.77;;;;;;;8.19;100.00;98774.34;5082059;28;20039;-76
2024/01/03 06:44:53;;;;;;;20.50;1.92;;;;;;;8.19;100.00;98777.75;5057670;28;20033;-75
2024/01/03 06:47:19;;;;;;;15.90;2.05;;;;;;;8.23;100.00;98767.03;5046975;28;20029;-75
2024/01/03 06:49:44;;;;;;;19.73;2.47;;;;;;;8.27;100.00;98768.25;5068442;28;20085;-74
2024/01/03 06:52:09;;;;;;;14.60;2.05;;;;;;;8.21;100.00;98753.50;5049263;28;20086;-75
2024/01/03 06:54:35;;;;;;;14.68;1.83;;;;;;;8.24;100.00;98756.50;5064618;28;20081;-75
2024/01/03 06:57:01;;;;;;;15.80;2.33;;;;;;;8.24;100.00;98747.97;5081673;28;20093;-76
2024/01/03 06:59:26;;;;;;;14.68;2.33;;;;;;;8.23;100.00;98754.94;5053607;28;20037;-73
2024/01/03 07:01:52;;;;;;;18.73;2.13;;;;;;;8.32;100.00;98740.84;5067903;28;20070;-75
2024/01/03 07:04:17;;;;;;;22.75;2.42;;;;;;;8.41;100.00;98744.09;5070734;28;20415;-74
2024/01/03 07:06:43;;;;;;;19.13;2.08;;;;;;;8.42;100.00;98734.56;5049303;28;20017;-74
2024/01/03 07:09:08;;;;;;;21.23;3.47;;;;;;;8.40;100.00;98732.19;5065616;28;20036;-74
2024/01/03 07:11:34;;;;;;;18.10;2.30;;;;;;;8.36;100.00;98734.34;5056740;28;20028;-74
2024/01/03 07:13:59;;;;;;;24.70;2.28;;;;;;;8.46;100.00;98735.81;5065376;28;20058;-74
2024/01/03 07:16:26;;;;;;;21.75;2.17;;;;;;;8.53;100.00;98723.69;5082631;28;20483;-75
2024/01/03 07:18:52;;;;;;;20.80;2.45;;;;;;;8.55;100.00;98722.53;5088309;28;20036;-74
2024/01/03 07:21:17;;;;;;;21.85;2.67;;;;;;;8.63;100.00;98718.97;5082701;28;20043;-74
2024/01/03 07:23:43;;;;;;;16.65;2.47;;;;;;;8.62;100.00;98730.28;5063403;28;20082;-74
2024/01/03 07:26:08;;;;;;;17.20;2.15;;;;;;;8.72;100.00;98724.75;5083880;28;20036;-73
2024/01/03 07:28:34;;;;;;;18.45;2.20;;;;;;;8.79;100.00;98740.28;5054009;28;20032;-74
2024/01/03 07:31:00;;;;;;;23.00;2.78;;;;;;;8.79;100.00;98738.50;5090412;28;20028;-75
2024/01/03 07:33:25;;;;;;;24.27;2.58;;;;;;;8.81;100.00;98744.25;5064467;28;20102;-75
2024/01/03 07:35:51;;;;;;;16.45;2.13;;;;;;;8.75;100.00;98765.72;5077770;28;20481;-75
2024/01/03 07:38:16;;;;;;;16.25;2.00;;;;;;;8.71;100.00;98785.97;5069601;28;20402;-75
2024/01/03 07:40:42;;;;;;;22.95;1.85;;;;;;;8.73;100.00;98802.09;5054535;28;20532;-76
2024/01/03 07:43:07;;;;;;;17.17;2.55;;;;;;;8.58;100.00;98807.38;5070803;28;20409;-78
2024/01/03 07:45:34;;;;;;;17.90;2.83;;;;;;;8.51;100.00;98790.25;5063371;28;20032;-76
2024/01/03 07:48:00;;;;;;;14.82;2.28;;;;;;;8.44;100.00;98792.00;5086403;28;20028;-76
2024/01/03 07:50:25;;;;;;;12.40;1.92;;;;;;;8.38;100.00;98794.34;5054960;28;20025;-76
2024/01/03 07:52:51;;;;;;;7.57;0.88;;;;;;;8.26;100.00;98816.50;5081160;28;20036;-76
2024/01/03 07:55:16;;;;;;;8.30;1.52;;;;;;;8.33;100.00;98809.59;5080466;28;20024;-76
2024/01/03 07:57:42;;;;;;;5.07;1.17;;;;;;;8.36;100.00;98813.59;5065552;28;20514;-77
2024/01/03 08:00:08;;;;;;;8.07;1.20;;;;;;;8.26;100.00;98818.31;5066684;28;20044;-75
2024/01/03 08:02:33;;;;;;;5.38;1.20;;;;;;;8.21;100.00;98812.91;5048613;28;20028;-75
2024/01/03 08:04:59;;;;;;;10.68;1.27;;;;;;;8.23;100.00;98816.91;5064317;28;20047;-76
2024/01/03 08:07:24;;;;;;;9.40;1.30;;;;;;;8.28;100.00;98824.84;5070527;28;20024;-76
2024/01/03 08:09:50;;;;;;;15.25;1.85;;;;;;;8.25;100.00;98817.50;5045695;28;20047;-75
2024/01/03 08:12:16;;;;;;;10.32;1.58;;;;;;;8.19;100.00;98816.47;5051476;28;20024;-74
2024/01/03 08:14:41;;;;;;;13.43;1.52;;;;;;;8.17;100.00;98821.03;5056287;28;20039;-75
2024/01/03 08:17:07;;;;;;;12.00;1.75;;;;;;;8.21;100.00;98823.22;5061926;28;20484;-74
2024/01/03 08:19:32;;;;;;;10.82;1.10;;;;;;;8.24;100.00;98815.91;5047840;28;20040;-74
2024/01/03 08:21:59;;;;;;;4.13;1.02;;;;;;;8.24;100.00;98820.28;5092347;28;20167;-75
2024/01/03 08:24:26;;;;;;;10.55;1.55;;;;;;;8.24;100.00;98838.34;5063819;28;20036;-74
2024/01/03 08:26:51;;;;;;;9.93;2.03;;;;;;;8.24;100.00;98830.59;5061715;28;20047;-74
2024/01/03 08:29:17;;;;;;;13.98;2.03;;;;;;;8.27;100.00;98836.19;5053911;28;20499;-75
2024/01/03 08:31:43;;;;;;;9.50;1.38;;;;;;;8.24;100.00;98831.38;5048039;28;20032;-75
2024/01/03 08:34:08;;;;;;;10.82;1.60;;;;;;;8.29;100.00;98831.63;5070853;28;20043;-75
2024/01/03 08:36:44;;;;;;;17.10;1.67;;;;;;;8.37;100.00;98830.69;5055797;28;20674;-75
2024/01/03 08:39:10;;;;;;;10.60;1.48;;;;;;;8.54;100.00;98836.38;5050517;28;20035;-74
2024/01/03 08:41:36;;;;;;;12.05;1.45;;;;;;;8.53;100.00;98843.34;5049171;28;20090;-75
2024/01/03 08:44:02;;;;;;;9.68;1.40;;;;;;;8.61;100.00;98829.47;5080136;28;20119;-75
2024/01/03 08:46:43;;;;;;;10.20;1.83;;;;;;;8.68;100.00;98835.47;5076806;28;20047;-74
2024/01/03 08:49:09;;;;;;;15.18;2.92;;;;;;;8.66;100.00;98844.38;5070467;28;20040;-75
2024/01/03 08:51:35;;;;;;;6.93;1.60;;;;;;;8.67;100.00;98840.81;5076237;28;20028;-74
2024/01/03 08:54:00;;;;;;;17.65;1.60;;;;;;;8.65;100.00;98851.34;5058856;28;20154;-75
2024/01/03 08:56:26;;;;;;;15.32;1.85;;;;;;;8.69;100.00;98862.88;5063460;28;20028;-75
2024/01/03 08:58:52;;;;;;;11.80;2.13;;;;;;;8.68;100.00;98863.06;5065552;28;20713;-75
2024/01/03 09:01:22;;;;;;;15.90;1.70;;;;;;;8.66;100.00;98859.88;5064815;28;20028;-74
2024/01/03 09:03:48;;;;;;;20.17;2.00;;;;;;;8.71;100.00;98871.25;5080898;28;20458;-74
2024/01/03 09:06:17;;;;;;;14.70;2.25;;;;;;;8.83;100.00;98856.00;5081022;28;20036;-75
2024/01/03 09:08:43;;;;;;;19.65;2.10;;;;;;;8.98;100.00;98858.44;5065640;28;20142;-75
2024/01/03 09:11:12;;;;;;;10.80;1.40;;;;;;;8.97;100.00;98872.38;5054899;28;20032;-74
2024/01/03 09:13:38;;;;;;;13.30;1.75;;;;;;;9.00;100.00;98869.41;5061259;28;20570;-75
2024/01/03 09:16:09;;;;;;;16.45;1.83;;;;;;;9.02;100.00;98874.38;5068308;28;20475;-75
2024/01/03 09:18:35;;;;;;;10.35;1.35;;;;;;;9.04;100.00;98878.38;5054537;28;20036;-74
2024/01/03 09:21:04;;;;;;;15.68;3.95;;;;;;;9.10;100.00;98882.00;5085070;28;20112;-74
2024/01/03 09:23:30;;;;;;;12.55;1.65;;;;;;;9.16;100.00;98886.38;5089056;28;20494;-74
2024/01/03 09:25:55;;;;;;;12.77;2.35;;;;;;;9.24;100.00;98882.81;5063524;28;20039;-74
2024/01/03 09:28:22;;;;;;;14.68;1.65;;;;;;;9.28;100.00;98896.97;5069509;28;20032;-75
2024/01/03 09:30:47;;;;;;;19.40;7.22;;;;;;;9.28;100.00;98891.78;5061556;28;20036;-74
2024/01/03 09:33:13;;;;;;;35.88;11.38;;;;;;;9.28;100.00;98896.97;5079691;28;20044;-75
2024/01/03 09:35:38;;;;;;;28.85;9.07;;;;;;;9.28;100.00;98904.72;5066761;28;20028;-75
2024/01/03 09:38:05;;;;;;;18.35;4.78;;;;;;;9.23;100.00;98902.72;5063437;28;20479;-74
2024/01/03 09:40:33;;;;;;;23.52;8.10;;;;;;;9.27;100.00;98898.75;5080570;28;20031;-74
2024/01/03 09:43:01;;;;;;;14.07;2.60;;;;;;;9.30;100.00;98893.19;5063058;28;20035;-75
2024/01/03 09:45:27;;;;;;;7.30;1.70;;;;;;;9.28;100.00;98907.31;5064362;28;20051;-75
2024/01/03 09:47:52;;;;;;;23.77;2.50;;;;;;;9.25;100.00;98912.84;5053915;28;20024;-74
2024/01/03 09:50:18;;;;;;;13.57;2.25;;;;;;;9.28;100.00;98913.25;5078895;28;20500;-75
2024/01/03 09:52:44;;;;;;;16.08;2.10;;;;;;;9.34;100.00;98920.28;5078962;28;20032;-75
2024/01/03 09:55:10;;;;;;;13.23;2.83;;;;;;;9.35;100.00;98921.84;5057288;28;20410;-75
2024/01/03 09:57:39;;;;;;;15.65;2.33;;;;;;;9.27;100.00;98918.66;5061431;28;20028;-75
2024/01/03 10:00:05;;;;;;;11.50;1.58;;;;;;;9.28;100.00;98930.59;5069790;28;20066;-75
2024/01/03 10:02:33;;;;;;;15.18;2.47;;;;;;;9.29;100.00;98948.50;5084517;28;20038;-74
2024/01/03 10:04:58;;;;;;;11.88;2.03;;;;;;;9.35;100.00;98931.41;5084831;28;20040;-74
2024/01/03 10:07:35;;;;;;;10.00;2.03;;;;;;;9.39;100.00;98937.78;5063067;28;20035;-75
2024/01/03 10:10:01;;;;;;;16.63;1.52;;;;;;;9.44;100.00;98934.63;5062955;28;20032;-75
2024/01/03 10:12:32;;;;;;;16.65;2.00;;;;;;;9.43;100.00;98927.84;5052469;28;20031;-75
2024/01/03 10:15:16;;;;;;;27.85;4.82;;;;;;;9.32;100.00;98935.19;5086055;28;20040;-75
2024/01/03 10:17:46;;;;;;;14.68;4.43;;;;;;;9.41;100.00;98935.00;5064203;28;20036;-75
2024/01/03 10:20:28;;;;;;;17.20;2.05;;;;;;;9.33;100.00;98941.94;5055317;28;20062;-75
2024/01/03 10:23:07;;;;;;;16.92;1.67;;;;;;;9.42;100.00;98952.94;5052787;28;20415;-75
2024/01/03 10:25:33;;;;;;;15.75;2.53;;;;;;;9.48;100.00;98957.34;5082672;28;20062;-74
2024/01/03 10:28:03;;;;;;;15.07;3.35;;;;;;;9.44;100.00;98943.19;5052552;28;20020;-74
2024/01/03 10:30:29;;;;;;;15.43;2.58;;;;;;;9.27;100.00;98944.53;5081638;28;20040;-74
2024/01/03 10:32:58;;;;;;;15.75;2.45;;;;;;;9.37;100.00;98944.94;5071081;28;20042;-74
2024/01/03 10:35:31;;;;;;;12.48;1.70;;;;;;;9.37;100.00;98946.75;5060072;28;20494;-74
2024/01/03 10:37:59;;;;;;;22.70;2.95;;;;;;;9.32;100.00;98940.38;5051600;28;20032;-74
2024/01/03 10:40:26;;;;;;;21.58;2.55;;;;;;;9.40;100.00;98948.94;5061329;28;20414;-73
2024/01/03 10:42:53;;;;;;;18.88;2.45;;;;;;;9.38;100.00;98930.22;5086363;28;20474;-74
2024/01/03 10:45:18;;;;;;;15.10;1.90;;;;;;;9.26;100.00;98942.91;5065244;28;20480;-75
2024/01/03 10:47:44;;;;;;;15.45;2.20;;;;;;;9.31;100.00;98925.81;5063202;28;20039;-74
2024/01/03 10:50:10;;;;;;;12.98;2.00;;;;;;;9.42;100.00;98934.00;5051692;28;20040;-75
2024/01/03 10:52:39;;;;;;;19.73;3.38;;;;;;;9.50;100.00;98928.69;5086722;28;20032;-73
2024/01/03 10:55:06;;;;;;;20.40;2.15;;;;;;;9.58;100.00;98928.50;5064714;28;20043;-74
2024/01/03 10:57:35;;;;;;;17.38;3.20;;;;;;;9.58;100.00;98923.31;5068106;28;20101;-74
2024/01/03 11:00:43;;;;;;;19.25;2.47;;;;;;;9.82;100.00;98939.31;5066750;28;20034;-74
2024/01/03 11:03:23;;;;;;;15.40;3.00;;;;;;;9.85;100.00;98937.13;5050714;28;20422;-74
2024/01/03 11:05:57;;;;;;;15.50;2.75;;;;;;;9.84;100.00;98948.47;5080217;28;20055;-75
2024/01/03 11:08:30;;;;;;;16.48;2.08;;;;;;;9.84;100.00;98925.19;5063969;28;20060;-75
2024/01/03 11:10:56;;;;;;;;;;;;;;;9.83;100.00;98935.72;5085100;28;20028;-75
2024/01/03 11:13:29;;;;;;;12.70;1.80;;;;;;;9.83;100.00;98949.47;5051828;28;20380;-75
2024/01/03 11:15:54;;;;;;;14.10;2.38;;;;;;;10.00;100.00;98943.91;5066213;28;20103;-75
2024/01/03 11:18:40;;;;;;;15.98;1.80;;;;;;;9.99;100.00;98950.91;5064086;28;20624;-74
2024/01/03 11:21:21;;;;;;;13.20;1.85;;;;;;;10.08;100.00;98946.34;5063504;28;20117;-76
2024/01/03 11:23:46;;;;;;;14.85;2.28;;;;;;;10.06;99.79;98938.75;5066967;28;20051;-75